createdAt,value
2023-05-14T00:00:36.226Z,10.53
2023-05-14T00:03:20.251Z,10.47
2023-05-14T00:06:04.262Z,10.33
2023-05-14T00:08:48.124Z,10.05
2023-05-14T00:11:31.961Z,10.00
2023-05-14T00:14:17.325Z,10.08
2023-05-14T00:17:01.464Z,10.06
2023-05-14T00:19:45.663Z,9.68
2023-05-14T00:22:29.584Z,9.85
2023-05-14T00:25:13.457Z,10.00
2023-05-14T00:27:57.319Z,9.95
2023-05-14T00:30:42.657Z,9.88
2023-05-14T00:33:26.814Z,10.06
2023-05-14T00:36:10.876Z,10.10
2023-05-14T00:38:54.766Z,10.13
2023-05-14T00:41:38.897Z,10.22
2023-05-14T00:44:22.677Z,10.28
2023-05-14T00:47:09.317Z,10.19
2023-05-14T00:49:53.181Z,10.28
2023-05-14T00:52:38.818Z,9.41
2023-05-14T00:55:23.710Z,10.05
2023-05-14T00:58:10.472Z,9.86
2023-05-14T01:00:54.965Z,9.76
2023-05-14T01:03:40.613Z,9.80
2023-05-14T01:06:31.410Z,9.84
2023-05-14T01:09:23.936Z,9.97
2023-05-14T01:12:15.507Z,9.87
2023-05-14T01:15:06.701Z,9.88
2023-05-14T01:17:54.867Z,9.81
2023-05-14T01:20:40.199Z,9.81
2023-05-14T01:23:26.846Z,10.08
2023-05-14T01:26:10.791Z,10.13
2023-05-14T01:28:57.534Z,10.26
2023-05-14T01:31:44.380Z,9.90
2023-05-14T01:34:31.409Z,10.06
2023-05-14T01:37:20.208Z,9.89
2023-05-14T01:40:06.985Z,10.14
2023-05-14T01:42:52.468Z,10.21
2023-05-14T01:45:37.442Z,10.29
2023-05-14T01:48:21.542Z,10.17
2023-05-14T01:51:05.720Z,10.17
2023-05-14T01:53:53.437Z,10.15
2023-05-14T01:56:39.095Z,10.04
2023-05-14T01:59:25.217Z,10.00
2023-05-14T02:02:09.311Z,10.11
2023-05-14T02:04:53.241Z,10.06
2023-05-14T02:07:37.181Z,10.03
2023-05-14T02:10:21.575Z,10.05
2023-05-14T02:13:10.725Z,10.20
2023-05-14T02:15:55.031Z,10.45
2023-05-14T02:18:39.407Z,10.54
2023-05-14T02:21:23.833Z,10.62
2023-05-14T02:24:07.973Z,10.49
2023-05-14T02:26:52.548Z,10.37
2023-05-14T02:29:37.916Z,10.33
2023-05-14T02:32:22.600Z,10.17
2023-05-14T02:35:07.625Z,10.07
2023-05-14T02:37:52.204Z,9.75
2023-05-14T02:40:38.271Z,9.64
2023-05-14T02:43:22.262Z,10.09
2023-05-14T02:46:08.053Z,9.94
2023-05-14T02:48:51.899Z,9.70
2023-05-14T02:51:35.803Z,9.42
2023-05-14T02:54:19.775Z,9.56
2023-05-14T02:57:03.848Z,9.36
2023-05-14T02:59:47.741Z,9.65
2023-05-14T03:02:33.854Z,9.85
2023-05-14T03:05:18.122Z,10.32
2023-05-14T03:08:02.172Z,10.43
2023-05-14T03:10:46.186Z,10.59
2023-05-14T03:13:30.634Z,11.04
2023-05-14T03:16:14.590Z,11.03
2023-05-14T03:19:00.247Z,11.06
2023-05-14T03:21:44.432Z,11.32
2023-05-14T03:24:28.810Z,11.02
2023-05-14T03:27:13.028Z,11.23
2023-05-14T03:29:56.918Z,10.82
2023-05-14T03:32:41.411Z,10.85
2023-05-14T03:35:26.779Z,10.80
2023-05-14T03:38:10.943Z,10.91
2023-05-14T03:40:54.820Z,10.99
2023-05-14T03:43:39.189Z,11.17
2023-05-14T03:46:23.106Z,11.72
2023-05-14T03:49:08.037Z,12.09
2023-05-14T03:51:53.513Z,11.95
2023-05-14T03:54:38.816Z,12.22
2023-05-14T03:57:22.785Z,12.35
2023-05-14T04:00:07.897Z,12.64
2023-05-14T04:03:01.791Z,12.70
2023-05-14T04:05:46.315Z,12.87
2023-05-14T04:08:31.888Z,13.40
2023-05-14T04:11:17.720Z,13.66
2023-05-14T04:14:01.984Z,14.14
2023-05-14T04:16:46.423Z,14.34
2023-05-14T04:19:30.340Z,14.66
2023-05-14T04:22:14.153Z,14.66
2023-05-14T04:25:00.059Z,14.83
2023-05-14T04:27:44.101Z,15.22
2023-05-14T04:30:28.035Z,15.64
2023-05-14T04:33:12.107Z,16.18
2023-05-14T04:35:56.179Z,16.17
2023-05-14T04:38:40.214Z,16.62
2023-05-14T04:41:25.524Z,16.72
2023-05-14T04:44:09.508Z,16.81
2023-05-14T04:46:53.359Z,16.54
2023-05-14T04:49:37.437Z,16.53
2023-05-14T04:52:21.580Z,16.30
2023-05-14T04:55:06.293Z,16.19
2023-05-14T04:57:51.515Z,16.01
2023-05-14T05:00:35.933Z,15.85
2023-05-14T05:03:19.925Z,16.01
2023-05-14T05:06:04.204Z,15.92
2023-05-14T05:08:48.438Z,16.01
2023-05-14T05:11:32.570Z,16.04
2023-05-14T05:14:18.396Z,16.01
2023-05-14T05:17:02.491Z,15.99
2023-05-14T05:19:46.784Z,15.92
2023-05-14T05:22:31.013Z,16.02
2023-05-14T05:25:15.019Z,15.92
2023-05-14T05:27:58.936Z,16.13
2023-05-14T05:30:45.304Z,16.15
2023-05-14T05:33:29.567Z,16.16
2023-05-14T05:36:13.551Z,16.31
2023-05-14T05:38:57.496Z,16.28
2023-05-14T05:41:41.907Z,16.23
2023-05-14T05:44:25.764Z,16.52
2023-05-14T05:47:11.658Z,16.37
2023-05-14T05:49:55.635Z,16.48
2023-05-14T05:52:40.317Z,16.42
2023-05-14T05:55:24.430Z,16.46
2023-05-14T05:58:08.695Z,16.40
2023-05-14T06:00:53.520Z,16.59
2023-05-14T06:03:39.204Z,16.59
2023-05-14T06:06:23.298Z,16.65
2023-05-14T06:09:09.038Z,16.83
2023-05-14T06:11:53.044Z,17.03
2023-05-14T06:14:37.449Z,17.05
2023-05-14T06:17:21.349Z,17.05
2023-05-14T06:20:09.125Z,17.25
2023-05-14T06:22:53.009Z,17.38
2023-05-14T06:25:38.146Z,17.46
2023-05-14T06:28:22.013Z,17.69
2023-05-14T06:31:06.129Z,17.66
2023-05-14T06:33:49.985Z,17.48
2023-05-14T06:36:35.361Z,17.97
2023-05-14T06:39:19.199Z,18.14
2023-05-14T06:42:03.489Z,18.32
2023-05-14T06:44:48.101Z,17.93
2023-05-14T06:47:32.169Z,17.87
2023-05-14T06:50:16.196Z,18.34
2023-05-14T06:53:01.490Z,18.23
2023-05-14T06:55:45.607Z,18.21
2023-05-14T06:58:29.496Z,18.25
2023-05-14T07:01:13.938Z,18.47
2023-05-14T07:03:58.004Z,18.30
2023-05-14T07:06:42.025Z,18.63
2023-05-14T07:09:27.327Z,18.44
2023-05-14T07:12:11.303Z,18.74
2023-05-14T07:14:57.015Z,18.90
2023-05-14T07:17:40.899Z,18.87
2023-05-14T07:20:25.341Z,18.98
2023-05-14T07:23:09.535Z,18.98
2023-05-14T07:25:54.777Z,19.24
2023-05-14T07:28:38.964Z,19.16
2023-05-14T07:31:23.114Z,19.44
2023-05-14T07:34:08.016Z,19.39
2023-05-14T07:36:51.942Z,19.69
2023-05-14T07:39:36.095Z,19.82
2023-05-14T07:42:34.502Z,19.96
2023-05-14T07:45:20.069Z,19.26
2023-05-14T07:48:04.187Z,19.69
2023-05-14T07:50:49.733Z,19.72
2023-05-14T07:53:33.720Z,20.21
2023-05-14T07:56:17.617Z,20.67
2023-05-14T07:59:03.234Z,20.78
2023-05-14T08:01:47.167Z,20.85
2023-05-14T08:04:31.068Z,20.85
2023-05-14T08:07:14.964Z,20.74
2023-05-14T08:09:59.052Z,20.98
2023-05-14T08:12:43.087Z,20.72
2023-05-14T08:15:29.319Z,21.04
2023-05-14T08:18:13.516Z,21.15
2023-05-14T08:20:57.941Z,21.52
2023-05-14T08:23:41.844Z,21.01
2023-05-14T08:26:25.966Z,21.73
2023-05-14T08:29:11.234Z,21.46
2023-05-14T08:31:59.089Z,21.55
2023-05-14T08:34:44.240Z,21.94
2023-05-14T08:37:28.170Z,21.69
2023-05-14T08:40:13.795Z,22.31
2023-05-14T08:42:58.349Z,22.41
2023-05-14T08:45:43.235Z,22.22
2023-05-14T08:48:33.398Z,22.21
2023-05-14T08:51:17.643Z,21.14
2023-05-14T08:54:03.813Z,21.81
2023-05-14T08:56:49.295Z,21.81
2023-05-14T08:59:34.849Z,21.02
2023-05-14T09:02:22.149Z,21.68
2023-05-14T09:05:09.287Z,21.64
2023-05-14T09:07:53.770Z,21.49
2023-05-14T09:10:37.775Z,21.49
2023-05-14T09:13:21.679Z,21.85
2023-05-14T09:16:06.311Z,21.66
2023-05-14T09:18:50.519Z,21.37
2023-05-14T09:21:36.730Z,21.59
2023-05-14T09:24:22.068Z,21.64
2023-05-14T09:27:06.667Z,21.57
2023-05-14T09:29:51.633Z,21.86
2023-05-14T09:32:41.301Z,21.95
2023-05-14T09:35:26.486Z,22.17
2023-05-14T09:38:12.960Z,22.43
2023-05-14T09:40:57.567Z,21.83
2023-05-14T09:43:41.421Z,22.21
2023-05-14T09:46:30.310Z,21.89
2023-05-14T09:49:14.503Z,22.35
2023-05-14T09:51:59.270Z,22.34
2023-05-14T09:54:45.128Z,22.88
2023-05-14T09:57:29.176Z,22.20
2023-05-14T10:00:14.238Z,23.21
2023-05-14T10:03:00.149Z,23.38
2023-05-14T10:05:45.156Z,23.15
2023-05-14T10:08:32.350Z,23.34
2023-05-14T10:11:22.379Z,23.16
2023-05-14T10:14:10.284Z,22.20
2023-05-14T10:16:55.526Z,23.18
2023-05-14T10:19:41.093Z,22.58
2023-05-14T10:22:28.780Z,22.77
2023-05-14T10:25:13.067Z,23.27
2023-05-14T10:27:59.143Z,21.83
2023-05-14T10:30:46.399Z,22.35
2023-05-14T10:33:30.412Z,22.79
2023-05-14T10:36:14.475Z,21.41
2023-05-14T10:38:58.721Z,22.23
2023-05-14T10:41:43.868Z,23.26
2023-05-14T10:44:30.288Z,23.69
2023-05-14T10:47:14.056Z,24.12
2023-05-14T10:50:00.490Z,23.42
2023-05-14T10:52:45.114Z,23.27
2023-05-14T10:55:28.974Z,23.59
2023-05-14T10:58:13.776Z,23.85
2023-05-14T11:00:58.986Z,23.16
2023-05-14T11:03:45.204Z,22.71
2023-05-14T11:06:31.463Z,23.41
2023-05-14T11:09:18.790Z,23.19
2023-05-14T11:12:02.671Z,23.40
2023-05-14T11:14:47.975Z,23.66
2023-05-14T11:17:33.913Z,23.09
2023-05-14T11:20:18.758Z,23.53
2023-05-14T11:23:03.562Z,23.15
2023-05-14T11:25:47.533Z,22.80
2023-05-14T11:28:31.436Z,22.22
2023-05-14T11:31:15.628Z,23.45
2023-05-14T11:34:01.045Z,24.37
2023-05-14T11:36:45.027Z,22.66
2023-05-14T11:39:28.904Z,22.90
2023-05-14T11:42:14.809Z,23.64
2023-05-14T11:44:58.648Z,23.73
2023-05-14T11:47:43.281Z,24.28
2023-05-14T11:50:28.503Z,23.00
2023-05-14T11:53:12.338Z,23.62
2023-05-14T11:55:57.785Z,22.56
2023-05-14T11:58:41.915Z,22.30
2023-05-14T12:01:25.793Z,22.12
2023-05-14T12:04:09.726Z,22.42
2023-05-14T12:06:55.029Z,23.14
2023-05-14T12:09:43.132Z,21.99
2023-05-14T12:12:28.110Z,23.09
2023-05-14T12:15:13.756Z,22.72
2023-05-14T12:17:57.816Z,21.20
2023-05-14T12:20:47.138Z,22.17
2023-05-14T12:23:33.657Z,20.89
2023-05-14T12:26:17.526Z,22.10
2023-05-14T12:29:02.614Z,22.65
2023-05-14T12:31:47.935Z,22.36
2023-05-14T12:34:32.016Z,21.51
2023-05-14T12:37:15.909Z,20.85
2023-05-14T12:40:00.983Z,21.81
2023-05-14T12:42:45.121Z,22.98
2023-05-14T12:45:29.172Z,23.12
2023-05-14T12:48:13.578Z,22.45
2023-05-14T12:50:57.705Z,23.29
2023-05-14T12:53:41.807Z,23.03
2023-05-14T12:56:28.463Z,23.88
2023-05-14T12:59:12.328Z,23.65
2023-05-14T13:01:56.452Z,24.09
2023-05-14T13:04:41.607Z,23.86
2023-05-14T13:07:25.737Z,23.54
2023-05-14T13:10:10.526Z,21.80
2023-05-14T13:12:56.618Z,22.68
2023-05-14T13:15:40.452Z,22.47
2023-05-14T13:18:25.675Z,22.79
2023-05-14T13:21:09.727Z,22.38
2023-05-14T13:23:53.462Z,22.29
2023-05-14T13:26:37.472Z,22.52
2023-05-14T13:29:22.661Z,22.26
2023-05-14T13:32:07.147Z,22.69
2023-05-14T13:34:51.030Z,23.34
2023-05-14T13:37:34.827Z,22.81
2023-05-14T13:40:18.577Z,23.46
2023-05-14T13:43:03.805Z,22.81
2023-05-14T13:45:49.045Z,22.45
2023-05-14T13:48:32.986Z,23.23
2023-05-14T13:51:17.050Z,23.00
2023-05-14T13:54:00.960Z,22.73
2023-05-14T13:56:44.871Z,22.23
2023-05-14T13:59:29.178Z,21.49
2023-05-14T14:02:14.804Z,22.20
2023-05-14T14:04:58.601Z,22.42
2023-05-14T14:07:42.739Z,22.79
2023-05-14T14:10:26.573Z,22.05
2023-05-14T14:13:11.067Z,22.32
2023-05-14T14:15:54.949Z,23.16
2023-05-14T14:18:40.250Z,22.56
2023-05-14T14:21:24.116Z,23.02
2023-05-14T14:24:08.417Z,21.14
2023-05-14T14:26:52.219Z,20.58
2023-05-14T14:29:36.773Z,20.89
2023-05-14T14:32:20.605Z,21.56
2023-05-14T14:35:06.560Z,22.15
2023-05-14T14:37:52.386Z,22.67
2023-05-14T14:40:36.587Z,22.57
2023-05-14T14:43:20.423Z,21.37
2023-05-14T14:46:04.418Z,21.95
2023-05-14T14:48:48.467Z,21.91
2023-05-14T14:51:33.631Z,21.79
2023-05-14T14:54:17.594Z,21.99
2023-05-14T14:57:01.485Z,22.31
2023-05-14T14:59:45.483Z,22.23
2023-05-14T15:02:29.748Z,21.43
2023-05-14T15:05:13.708Z,21.44
2023-05-14T15:07:58.939Z,21.16
2023-05-14T15:10:43.047Z,21.45
2023-05-14T15:13:27.157Z,21.56
2023-05-14T15:16:11.515Z,21.76
2023-05-14T15:18:55.480Z,21.80
2023-05-14T15:21:39.614Z,21.33
2023-05-14T15:24:26.242Z,20.90
2023-05-14T15:27:10.445Z,21.07
2023-05-14T15:29:54.382Z,21.01
2023-05-14T15:32:38.371Z,19.55
2023-05-14T15:35:22.456Z,19.32
2023-05-14T15:38:07.915Z,19.31
2023-05-14T15:40:53.133Z,20.11
2023-05-14T15:43:37.131Z,19.50
2023-05-14T15:46:22.878Z,19.78
2023-05-14T15:49:06.844Z,20.20
2023-05-14T15:51:50.732Z,20.33
2023-05-14T15:54:34.607Z,20.10
2023-05-14T15:57:20.272Z,19.89
2023-05-14T16:00:10.073Z,19.78
2023-05-14T16:02:54.037Z,19.17
2023-05-14T16:05:38.108Z,19.72
2023-05-14T16:08:22.018Z,19.88
2023-05-14T16:11:06.371Z,19.63
2023-05-14T16:13:51.871Z,19.30
2023-05-14T16:16:35.740Z,19.21
2023-05-14T16:19:19.721Z,18.05
2023-05-14T16:22:03.558Z,18.47
2023-05-14T16:24:47.355Z,18.25
2023-05-14T16:27:31.185Z,18.52
2023-05-14T16:30:16.678Z,18.56
2023-05-14T16:33:00.590Z,18.43
2023-05-14T16:35:45.493Z,18.19
2023-05-14T16:38:29.484Z,17.28
2023-05-14T16:41:13.414Z,17.57
2023-05-14T16:43:57.222Z,17.85
2023-05-14T16:46:42.576Z,17.57
2023-05-14T16:49:26.389Z,17.27
2023-05-14T16:52:10.565Z,17.55
2023-05-14T16:54:54.464Z,17.70
2023-05-14T16:57:38.354Z,18.03
2023-05-14T17:00:22.372Z,17.95
2023-05-14T17:03:07.842Z,17.94
2023-05-14T17:05:52.296Z,17.26
2023-05-14T17:08:36.175Z,17.44
2023-05-14T17:11:21.139Z,17.72
2023-05-14T17:14:05.116Z,17.82
2023-05-14T17:16:49.354Z,17.84
2023-05-14T17:19:34.574Z,17.17
2023-05-14T17:22:18.423Z,17.41
2023-05-14T17:25:02.346Z,17.55
2023-05-14T17:27:47.870Z,16.98
2023-05-14T17:30:31.821Z,16.74
2023-05-14T17:33:15.653Z,17.16
2023-05-14T17:36:01.074Z,17.33
2023-05-14T17:38:45.108Z,16.83
2023-05-14T17:41:29.076Z,17.12
2023-05-14T17:44:13.327Z,17.25
2023-05-14T17:46:57.638Z,17.18
2023-05-14T17:49:41.909Z,17.08
2023-05-14T17:52:27.204Z,16.96
2023-05-14T17:55:11.189Z,16.87
2023-05-14T17:57:55.092Z,16.73
2023-05-14T18:00:39.073Z,16.75
2023-05-14T18:03:23.017Z,16.94
2023-05-14T18:06:07.260Z,17.01
2023-05-14T18:08:52.690Z,16.98
2023-05-14T18:11:36.490Z,16.67
2023-05-14T18:14:20.347Z,16.54
2023-05-14T18:17:05.085Z,16.68
2023-05-14T18:19:49.249Z,16.73
2023-05-14T18:22:33.248Z,16.49
2023-05-14T18:25:19.188Z,16.75
2023-05-14T18:28:03.499Z,16.72
2023-05-14T18:30:47.693Z,16.59
2023-05-14T18:33:31.923Z,16.67
2023-05-14T18:36:15.988Z,16.53
2023-05-14T18:38:59.874Z,16.58
2023-05-14T18:41:45.610Z,16.79
2023-05-14T18:44:29.527Z,16.35
2023-05-14T18:47:13.696Z,15.89
2023-05-14T18:50:00.546Z,16.42
2023-05-14T18:52:44.860Z,16.44
2023-05-14T18:55:29.210Z,16.63
2023-05-14T18:58:15.584Z,16.61
2023-05-14T19:01:00.047Z,16.32
2023-05-14T19:03:44.394Z,16.42
2023-05-14T19:06:29.128Z,16.40
2023-05-14T19:09:14.874Z,16.68
2023-05-14T19:11:59.307Z,16.67
2023-05-14T19:14:45.488Z,16.49
2023-05-14T19:17:32.788Z,16.30
2023-05-14T19:20:17.258Z,16.27
2023-05-14T19:23:01.400Z,16.22
2023-05-14T19:25:46.015Z,16.15
2023-05-14T19:28:30.360Z,15.70
2023-05-14T19:31:16.043Z,15.56
2023-05-14T19:34:00.196Z,15.63
2023-05-14T19:36:44.415Z,15.52
2023-05-14T19:39:28.383Z,15.55
2023-05-14T19:42:12.505Z,15.74
2023-05-14T19:44:56.678Z,15.56
2023-05-14T19:47:43.109Z,15.66
2023-05-14T19:50:27.377Z,15.50
2023-05-14T19:53:11.414Z,15.44
2023-05-14T19:55:55.426Z,15.66
2023-05-14T19:58:39.548Z,15.12
2023-05-14T20:01:23.852Z,15.16
2023-05-14T20:04:09.371Z,15.48
2023-05-14T20:06:54.236Z,15.34
2023-05-14T20:09:38.498Z,15.63
2023-05-14T20:12:22.655Z,15.50
2023-05-14T20:15:07.930Z,15.44
2023-05-14T20:17:52.162Z,15.75
2023-05-14T20:20:37.557Z,15.81
2023-05-14T20:23:21.638Z,15.73
2023-05-14T20:26:05.741Z,15.92
2023-05-14T20:28:49.720Z,15.78
2023-05-14T20:31:33.625Z,15.75
2023-05-14T20:34:17.473Z,15.79
2023-05-14T20:37:05.002Z,15.79
2023-05-14T20:39:48.907Z,15.59
2023-05-14T20:42:33.216Z,15.81
2023-05-14T20:45:17.500Z,15.88
2023-05-14T20:48:01.355Z,16.00
2023-05-14T20:50:45.774Z,15.99
2023-05-14T20:53:31.203Z,15.89
2023-05-14T20:56:15.258Z,15.74
2023-05-14T20:58:59.102Z,15.21
2023-05-14T21:01:43.979Z,14.72
2023-05-14T21:04:27.917Z,15.66
2023-05-14T21:07:11.868Z,15.52
2023-05-14T21:09:57.104Z,15.52
2023-05-14T21:12:42.606Z,15.61
2023-05-14T21:15:27.427Z,15.45
2023-05-14T21:18:12.109Z,14.90
2023-05-14T21:20:55.918Z,15.27
2023-05-14T21:23:39.687Z,15.23
2023-05-14T21:26:24.919Z,14.96
2023-05-14T21:29:08.728Z,15.12
2023-05-14T21:31:52.500Z,14.89
2023-05-14T21:34:36.303Z,15.03
2023-05-14T21:37:20.096Z,15.05
2023-05-14T21:40:03.876Z,14.75
2023-05-14T21:42:51.551Z,14.42
2023-05-14T21:45:36.248Z,14.25
2023-05-14T21:48:21.077Z,14.65
2023-05-14T21:51:05.721Z,14.50
2023-05-14T21:53:52.279Z,14.83
2023-05-14T21:56:37.191Z,14.95
2023-05-14T21:59:22.660Z,14.82
2023-05-14T22:02:07.576Z,14.79
2023-05-14T22:04:51.810Z,15.18
2023-05-14T22:07:35.672Z,15.11
2023-05-14T22:10:20.767Z,14.95
2023-05-14T22:13:04.980Z,15.17
2023-05-14T22:15:55.479Z,14.34
2023-05-14T22:18:45.153Z,14.82
2023-05-14T22:21:28.999Z,14.78
2023-05-14T22:24:12.884Z,14.70
2023-05-14T22:26:56.715Z,14.93
2023-05-14T22:29:40.501Z,15.08
2023-05-14T22:32:25.902Z,15.11
2023-05-14T22:35:11.309Z,15.36
2023-05-14T22:37:55.364Z,15.02
2023-05-14T22:40:39.363Z,15.45
2023-05-14T22:43:23.295Z,15.20
2023-05-14T22:46:07.347Z,15.52
2023-05-14T22:48:52.531Z,15.63
2023-05-14T22:51:36.379Z,15.45
2023-05-14T22:54:20.219Z,15.33
2023-05-14T22:57:04.454Z,14.96
2023-05-14T22:59:48.263Z,15.36
2023-05-14T23:02:32.135Z,15.50
2023-05-14T23:05:17.706Z,15.15
2023-05-14T23:08:01.516Z,15.40
2023-05-14T23:10:45.597Z,15.69
2023-05-14T23:13:29.572Z,15.68
2023-05-14T23:16:13.336Z,15.75
2023-05-14T23:18:57.519Z,15.76
2023-05-14T23:21:42.901Z,15.48
2023-05-14T23:24:27.217Z,15.30
2023-05-14T23:27:12.515Z,15.19
2023-05-14T23:29:56.317Z,15.52
2023-05-14T23:32:40.200Z,15.46
2023-05-14T23:35:24.212Z,15.78
2023-05-14T23:38:09.606Z,15.45
2023-05-14T23:40:53.436Z,15.57
2023-05-14T23:43:37.366Z,15.07
2023-05-14T23:46:21.147Z,15.42
2023-05-14T23:49:05.224Z,15.24
2023-05-14T23:51:49.076Z,15.46
2023-05-14T23:54:34.396Z,15.45
2023-05-14T23:57:18.148Z,15.66
